General Lucio Blanco International Airport
MMRX : now visible

Airfield :











YOU CAN JOIN US ON...

 
LOGIN :

Register | Disclaimer

   EN    FR    IT 

 









Legend :    VFR   Marginal VFR   IFR   Intensive IFR   Very Intensive IFR
Visi :
Ceiling :
>= 8 km
>= 3000ft
5 to 8 km
1000 to 3000 ft
1500m to 5 km
500 to 1000 ft
800 to 1500m
200 to 500 ft
< 800m
< 200 ft
Symbols :   Thunderstorms  Fog  Heavy snow  Heavy precipitations  Wind > 20 kt






- Airport Elevation : 139 ft
- IATA code : REX


MMRX - General Lucio Blanco International

CURRENT METAR :
  • 192140Z 00000KT 8SM FEW030 BKN280 38/20 A2991 RMK 8/108 CB E MOV S

EXPIRED METARs :
  • 192040Z 25005KT 8SM FEW025 BKN280 37/20 A2993 RMK SLP131 57019 953 8/108 CB E
  • 191940Z 31008KT 8SM SCT025 BKN280 36/21 A2995 RMK 8/208
  • 191844Z 24004KT 7SM FEW025 SCT280 36/21 A2997 RMK 8/101 HZY
  • 191743Z 18004KT 7SM SCT280 35/21 A2999 RMK SLP150 57009 954 8/001 HZY ISOL CU

TAF TAF MMRX
Valid from the 19 at 18:00 until the 20 at 18:00 UTC


191623Z 1918/2018 12008KT P6SM SCT150
FM192100 14015KT 5SM HZ SCT040 BKN250
FM200300 14012KT P6SM SCT025 SCT250
TEMPO 2011/2015 3SM BR BKN015
MMFR FIR / North America



MET'MAP, your aeronautical weather chart ! - Copyright ORBIFLY December 2007 - Disclaimer

ORBIFLY MET'MAP TEAM :

Programming & Development : Alexandra Zaïnal
Original concept : Baudouin d'Aumeries
Technical & hardware support : Manuel Goepfert
Assistance : Marc-Olivier Méhu




SOURCES & CREDITS :

   NOAA       Earth
Advisory